Moisie, Canada
Current Conditions -  °F | °C
As of 7:00 PM on Wednesday 22 Oct 2014 (Local Time) from CYZV Reporting Station
Clear Clear  
Wind Chill: 27°   Ceiling: Unl
Heat Index: 27°   Visibility: 15mi
Dew Point: 25°   Wind: 3mph
Humidity: 93%   Direction: 10°N
Pressure: 30.48"   Gusts: NA
Location:  50.19°N, 66.1°W
Report Text: CYZV 222300Z 01003KT 15SM SKC M03/M04 A3048 RMK SLP325
Loading
Personal Weather Stations






























Interactive Weather Map
Tropical Storm Tracking
New forecast layout! Learn more

10-Day Weather Forecast

Advertisements
Track Severe Weather on mobile